Terminal Aerodrome Forecast
Issued by NWS

Home | Current Version | Previous Version | Graphics & Text | Print | Product List | Glossary On
Versions: 1 2 3 4 5 6 7 8 9 10 11 12 13 14 15 16 17 18 19 20 21 22 23 24 25 26 27 28 29 30
724
FTUS43 KLOT 282114 AAA
TAFMDW
TAF AMD
KMDW 282114Z 2821/2918 06009KT P6SM OVC014
     FM290100 04008KT P6SM OVC007
     FM290900 01005KT 4SM BR OVC004
     FM291400 03009KT P6SM BKN020
     FM291700 05009KT P6SM SCT025=

USA.gov is the U.S. government's official web portal to all federal, state and local government web resources and services.